x

Tanner Bank - 121nm West Of San Diego, Ca (46047) Wave Buoy

11:50 - Fri 1st Jul 2016 All times are PDT. -7 hours from GMT.

  • Sig Wave height 5.6ft
  • Swell Direction
  • Peak Period 16s
  • Average Period 7s
  • Wind
    9mph, 13mph gusts
  • Sea Temp 60°f
  • Ar Temp 59°f
  • Sea Pressure 1014.3mb
  • Tanner Bank - 121nm West Of San Diego, Ca
  • Tanner Bank - 121nm West Of San Diego, Ca

More Historic Weather Station data

Upgrade to MSW Pro to gain access to the past 30 days of data for over 8000 Wavebouys and Weather Stations around the globe.

Join Pro

Comparision Forecast

View Surf forecast
   
Sex 07/01 11:50 5.5ft 16s 7s 9 13 mph 1014.3mb 60f 59f
10:50 6ft 16s 8s 9 13 mph 1014.3mb 60f 59f
9:50 6.5ft 16s 8s 9 11 mph 1014.3mb 60f 59f
8:50 6ft 15s 8s 9 13 mph 1013.6mb 60f 59f
7:50 6ft 16s 8s 13 16 mph 1013.1mb 61f 59f
6:50 6.5ft 16s 8s 11 16 mph 1012.9mb 61f 59f
5:50 6.5ft 16s 8s 9 11 mph 1012.8mb 61f 59f
4:50 6ft 16s 8s 9 11 mph 1012.8mb 62f 60f
3:50 6ft 16s 8s 11 16 mph 1013.4mb 62f 60f
2:50 6.5ft 16s 8s 11 13 mph 1013.8mb 61f 59f
1:50 6.5ft 16s 8s 11 13 mph 1014mb 62f 59f
12:50 6ft 16s 7s 11 13 mph 1014.5mb 61f 58f
11:50 7ft 16s 7s 11 13 mph 1014.6mb 61f 58f
10:50 7ft 16s 8s 11
mph
1014.5mb 61f 58f
9:50 6.5ft 16s 7s 11 13 mph 1014mb 60f 58f
8:50 6.5ft 16s 7s 9 11 mph 1014mb 60f 58f
7:50 6.5ft 16s 7s 11 13 mph 1013.4mb 59f 58f
6:50 7ft 16s 7s 16 20 mph 1012.8mb 59f 57f
5:50 6.5ft 16s 7s 11 18 mph 1012.7mb 59f 58f
4:50 6.5ft 17s 7s 13 18 mph 1012.5mb 59f 58f
3:50 7ft 17s 7s 16 18 mph 1012.3mb 59f 58f
2:50 6.5ft 16s 7s 18 20 mph 1012mb 59f 58f
1:50 8ft 17s 7s 16 20 mph 1012.4mb 59f 58f
12:50 8ft 16s 7s 16 20 mph 1012.7mb 59f 58f
Qui 06/30 11:50 7.5ft 17s 6s 16 20 mph 1012.9mb 59f 58f
10:50 7.5ft 8s 6s 18 20 mph 1012.8mb 59f 58f
9:50 8ft 16s 6s 18 20 mph 1012.4mb 59f 58f
8:50 8ft 9s 6s 20 25 mph 1011.6mb 59f 58f
7:50 8.5ft 17s 7s 20 22 mph 1011.2mb 59f 58f
6:50 8ft 17s 7s 20 27 mph 1010.9mb 59f 59f
4:50 7.5ft 17s 6s 20 27 mph 1011.4mb 60f 59f
3:50 7.5ft 9s 7s 20 22 mph 1012.1mb 60f 59f
2:50 8ft 10s 7s 20 25 mph 1012.7mb 60f 59f
1:50 7.5ft 10s 7s 20 25 mph 1013.2mb 60f 58f
12:50 8ft 8s 6s 22 27 mph 1013.3mb 60f 58f
11:50 8.5ft 17s 7s 20 22 mph 1013.9mb 60f 58f
10:50 9ft 10s 7s 20 27 mph 1013.5mb 60f 58f
9:50 9ft 10s 7s 20 25 mph 1013.3mb 60f 57f
8:50 9ft 10s 6s 22 25 mph 1013mb 60f 57f
7:50 9ft 10s 7s 22 27 mph 1012.2mb 60f 57f
6:50 8.5ft 9s 6s 22 27 mph 1012.1mb 60f 57f
5:50 8.5ft 10s 7s 20 25 mph 1011.7mb 60f 58f
4:50 8.5ft 9s 6s 20 25 mph 1011.5mb 60f 58f
3:50 8.5ft 9s 6s 22 27 mph 1011.5mb 60f 58f
2:50 8ft 9s 6s 22 29 mph 1011.3mb 60f 58f
1:50 8ft 17s 6s 20 25 mph 1011.8mb 60f 58f
12:50 7.5ft 9s 6s 20 22 mph 1012.3mb 60f 58f
Qua 06/29 11:50 7.5ft 19s 6s 18 22 mph 1012.6mb 60f 59f
10:50 7.5ft 9s 6s 20 25 mph 1012.5mb 60f 59f
9:50 7ft 19s 6s 20 22 mph 1012.4mb 60f 59f
8:50 6.5ft 9s 6s 20 25 mph 1012.1mb 60f 59f
7:50 6ft 19s 6s 18 22 mph 1011.9mb 60f 59f
6:50 6ft 10s 6s 20 22 mph 1011.5mb 60f 59f
5:50 6ft 19s 6s 20 25 mph 1012mb 61f 59f
4:50 6ft 8s 6s 16 20 mph 1012.5mb 61f 59f
3:50 6ft 9s 6s 16 20 mph 1012.8mb 61f 59f
2:50 6ft 7s 7s 16 18 mph 1013.4mb 61f 59f
1:50 5ft 19s 7s 16 18 mph 1013.7mb 62f 60f
12:50 5.5ft 16s 7s 13 16 mph 1014mb 61f 60f
11:50 5.5ft 8s 7s 13 16 mph 1014.2mb 61f 60f
10:50 5ft 8s 6s 11 16 mph 1014.1mb 61f 59f
9:50 6ft 8s 7s 9 11 mph 1014.4mb 61f 58f
8:50 6ft 8s 7s 11 16 mph 1014mb 61f 58f
7:50 5.5ft 9s 7s 16 18 mph 1013.6mb 61f 58f
6:50 5.5ft 9s 7s 13 18 mph 1013.2mb 61f 58f
5:50 4.5ft 9s 7s 13 16 mph 1013mb 61f 58f
4:50 5ft 16s 7s 13 16 mph 1012.7mb 62f 58f
3:50 5ft 16s 8s 16 18 mph 1012.8mb 62f 58f
2:50 4.5ft 11s 8s 11 16 mph 1013.1mb 61f 58f
12:50 4.5ft 14s 8s 11 13 mph 1013.7mb 61f 59f
Ter 06/28 11:50 4.5ft 16s 8s 11 13 mph 1013.5mb 61f 59f
10:50 4.5ft 8s 8s 7 9 mph 1013.5mb 62f 62f
9:50 4.5ft 9s 8s 7 9 mph 1013.2mb 63f 63f
8:50 4.5ft 9s 8s 7
mph
1013mb 63f 63f
7:50 4.5ft 8s 8s 7
mph
1013.1mb 63f 63f
6:50 5ft 14s 8s 7
mph
1012.8mb 63f 64f
5:50 5ft 8s 8s 9 11 mph 1013mb 64f 63f
4:50 5ft 8s 8s 9 11 mph 1013.2mb 63f 63f
3:50 5ft 9s 8s 7 9 mph 1013.8mb 63f 62f
2:50 5ft 8s 8s 4 7 mph 1014.8mb 63f 62f
1:50 5ft 8s 8s 7 9 mph 1014.4mb 63f 62f
12:50 5ft 8s 8s 7
mph
1015mb 62f 61f
11:50 5ft 8s 8s 4
mph
1015.6mb 62f 61f
10:50 5ft 9s 8s 7 9 mph 1015.6mb 62f 60f
9:50 4.5ft 8s 8s 4 7 mph 1015.7mb 62f 60f
8:50 5ft 14s 8s 4
mph
1015.3mb 62f 59f
7:50 5ft 9s 8s 2 4 mph 1014.5mb 61f 59f